createdAt,value
2018-06-23T00:02:15.075Z,76.19
2018-06-23T00:04:46.761Z,76.35
2018-06-23T00:07:17.857Z,76.23
2018-06-23T00:09:49.512Z,76.70
2018-06-23T00:12:21.676Z,77.11
2018-06-23T00:14:52.711Z,77.45
2018-06-23T00:17:23.717Z,77.66
2018-06-23T00:19:54.674Z,77.89
2018-06-23T00:22:25.837Z,77.68
2018-06-23T00:24:56.827Z,77.65
2018-06-23T00:27:28.725Z,77.84
2018-06-23T00:30:00.480Z,77.26
2018-06-23T00:32:31.729Z,77.57
2018-06-23T00:35:02.860Z,77.18
2018-06-23T00:37:33.790Z,76.73
2018-06-23T00:40:04.817Z,75.88
2018-06-23T00:42:35.279Z,75.25
2018-06-23T00:45:06.167Z,74.75
2018-06-23T00:47:37.152Z,74.37
2018-06-23T00:50:08.267Z,75.31
2018-06-23T00:52:40.020Z,75.26
2018-06-23T00:55:10.671Z,75.87
2018-06-23T00:57:41.807Z,76.46
2018-06-23T01:00:13.059Z,77.01
2018-06-23T01:02:44.193Z,77.23
2018-06-23T01:05:16.068Z,77.58
2018-06-23T01:07:47.291Z,77.61
2018-06-23T01:10:18.326Z,77.21
2018-06-23T01:12:49.546Z,77.44
2018-06-23T01:15:21.322Z,77.56
2018-06-23T01:17:52.985Z,78.22
2018-06-23T01:20:24.017Z,78.02
2018-06-23T01:22:54.853Z,77.47
2018-06-23T01:25:25.747Z,77.01
2018-06-23T01:27:57.844Z,76.51
2018-06-23T01:30:28.770Z,76.42
2018-06-23T01:32:59.691Z,76.17
2018-06-23T01:35:30.645Z,75.78
2018-06-23T01:38:02.869Z,74.47
2018-06-23T01:40:33.875Z,73.96
2018-06-23T01:43:05.150Z,73.64
2018-06-23T01:45:36.180Z,73.59
2018-06-23T01:48:07.381Z,74.46
2018-06-23T01:50:40.051Z,75.13
2018-06-23T01:53:10.577Z,75.41
2018-06-23T01:55:42.559Z,75.82
2018-06-23T01:58:13.452Z,75.56
2018-06-23T02:00:44.635Z,76.35
2018-06-23T02:03:15.691Z,76.04
2018-06-23T02:05:46.663Z,76.34
2018-06-23T02:08:18.619Z,76.75
2018-06-23T02:10:49.664Z,76.70
2018-06-23T02:13:20.730Z,76.33
2018-06-23T02:15:56.735Z,76.62
2018-06-23T02:18:32.480Z,76.46
2018-06-23T02:21:08.449Z,76.78
2018-06-23T02:23:44.571Z,76.62
2018-06-23T02:26:21.160Z,77.19
2018-06-23T02:28:57.368Z,76.82
2018-06-23T02:31:33.290Z,77.04
2018-06-23T02:34:09.125Z,76.77
2018-06-23T02:36:40.137Z,76.83
2018-06-23T02:39:11.503Z,76.55
2018-06-23T02:41:42.667Z,77.06
2018-06-23T02:44:14.355Z,77.50
2018-06-23T02:46:44.853Z,76.61
2018-06-23T02:49:17.299Z,76.91
2018-06-23T02:51:48.195Z,77.00
2018-06-23T02:54:19.091Z,76.78
2018-06-23T02:56:50.063Z,76.70
2018-06-23T02:59:21.313Z,77.13
2018-06-23T03:01:52.342Z,77.22
2018-06-23T03:04:23.299Z,77.73
2018-06-23T03:06:54.483Z,77.09
2018-06-23T03:09:26.252Z,77.32
2018-06-23T03:11:57.262Z,77.67
2018-06-23T03:14:29.081Z,77.82
2018-06-23T03:17:00.849Z,78.24
2018-06-23T03:19:31.737Z,78.76
2018-06-23T03:22:03.318Z,78.71
2018-06-23T03:24:34.404Z,78.72
2018-06-23T03:27:05.450Z,78.52
2018-06-23T03:29:36.464Z,78.04
2018-06-23T03:32:08.991Z,77.97
2018-06-23T03:34:40.427Z,77.48
2018-06-23T03:37:11.619Z,77.15
2018-06-23T03:39:42.795Z,77.35
2018-06-23T03:42:15.014Z,77.32
2018-06-23T03:44:46.884Z,77.55
2018-06-23T03:47:17.665Z,77.21
2018-06-23T03:49:49.531Z,77.25
2018-06-23T03:52:21.202Z,76.82
2018-06-23T03:54:52.163Z,76.49
2018-06-23T03:57:23.369Z,75.37
2018-06-23T03:59:54.417Z,75.81
2018-06-23T04:02:25.396Z,74.69
2018-06-23T04:04:56.600Z,74.18
2018-06-23T04:07:27.562Z,73.95
2018-06-23T04:09:59.564Z,73.85
2018-06-23T04:12:30.769Z,74.11
2018-06-23T04:15:02.223Z,73.79
2018-06-23T04:17:33.357Z,73.64
2018-06-23T04:20:04.513Z,73.95
2018-06-23T04:22:35.839Z,73.92
2018-06-23T04:25:07.647Z,73.15
2018-06-23T04:27:39.172Z,72.41
2018-06-23T04:30:10.274Z,72.78
2018-06-23T04:32:41.858Z,72.46
2018-06-23T04:35:12.814Z,71.77
2018-06-23T04:37:44.237Z,71.46
2018-06-23T04:40:15.538Z,71.55
2018-06-23T04:42:46.706Z,71.06
2018-06-23T04:45:17.986Z,70.95
2018-06-23T04:47:49.109Z,70.57
2018-06-23T04:50:21.023Z,70.62
2018-06-23T04:52:52.061Z,70.54
2018-06-23T04:55:23.396Z,70.85
2018-06-23T04:57:54.504Z,70.92
2018-06-23T05:00:27.302Z,70.83
2018-06-23T05:03:00.921Z,71.03
2018-06-23T05:05:32.070Z,69.96
2018-06-23T05:08:03.315Z,70.05
2018-06-23T05:10:34.393Z,68.87
2018-06-23T05:13:05.682Z,68.60
2018-06-23T05:15:36.862Z,67.93
2018-06-23T05:18:08.202Z,68.12
2018-06-23T05:20:39.468Z,66.87
2018-06-23T05:23:11.479Z,65.65
2018-06-23T05:25:42.463Z,65.45
2018-06-23T05:28:13.525Z,64.11
2018-06-23T05:30:44.589Z,63.37
2018-06-23T05:33:17.855Z,62.12
2018-06-23T05:35:48.621Z,62.13
2018-06-23T05:38:19.855Z,61.06
2018-06-23T05:40:51.170Z,60.82
2018-06-23T05:43:22.391Z,60.09
2018-06-23T05:45:53.715Z,59.78
2018-06-23T05:48:24.210Z,60.15
2018-06-23T05:50:55.113Z,59.23
2018-06-23T05:53:26.617Z,58.29
2018-06-23T05:55:58.524Z,58.06
2018-06-23T05:58:30.023Z,57.05
2018-06-23T06:01:01.101Z,57.78
2018-06-23T06:03:33.499Z,57.45
2018-06-23T06:06:04.140Z,57.13
2018-06-23T06:08:34.787Z,55.90
2018-06-23T06:11:06.713Z,55.76
2018-06-23T06:13:38.072Z,56.36
2018-06-23T06:16:09.585Z,55.25
2018-06-23T06:18:40.848Z,54.30
2018-06-23T06:21:13.161Z,53.80
2018-06-23T06:23:45.938Z,52.42
2018-06-23T06:26:17.119Z,49.07
2018-06-23T06:28:48.279Z,45.72
2018-06-23T06:31:19.306Z,44.64
2018-06-23T06:33:51.556Z,43.50
2018-06-23T06:36:24.455Z,42.67
2018-06-23T06:38:55.593Z,39.95
2018-06-23T06:41:26.641Z,39.70
2018-06-23T06:43:57.894Z,39.36
2018-06-23T06:46:28.850Z,37.57
2018-06-23T06:49:00.087Z,38.05
2018-06-23T06:51:31.476Z,36.23
2018-06-23T06:54:03.555Z,35.29
2018-06-23T06:56:34.843Z,34.84
2018-06-23T06:59:06.372Z,34.04
2018-06-23T07:01:45.994Z,33.68
2018-06-23T07:04:18.063Z,32.54
2018-06-23T07:06:49.807Z,31.54
2018-06-23T07:09:21.102Z,30.96
2018-06-23T07:11:52.518Z,30.33
2018-06-23T07:14:23.577Z,28.62
2018-06-23T07:16:55.933Z,28.88
2018-06-23T07:19:27.633Z,28.36
2018-06-23T07:21:58.908Z,29.04
2018-06-23T07:24:30.538Z,29.73
2018-06-23T07:27:02.156Z,28.22
2018-06-23T07:29:34.011Z,28.21
2018-06-23T07:32:06.247Z,28.86
2018-06-23T07:34:38.878Z,27.62
2018-06-23T07:37:10.578Z,27.57
2018-06-23T07:39:41.759Z,26.62
2018-06-23T07:42:13.143Z,27.14
2018-06-23T07:44:44.662Z,27.55
2018-06-23T07:47:15.767Z,27.15
2018-06-23T07:49:47.212Z,26.92
2018-06-23T07:52:18.916Z,26.91
2018-06-23T07:54:51.389Z,27.92
2018-06-23T07:57:22.558Z,27.37
2018-06-23T07:59:54.738Z,25.78
2018-06-23T08:02:26.927Z,24.58
2018-06-23T08:04:59.066Z,24.49
2018-06-23T08:07:30.324Z,23.79
2018-06-23T08:10:03.298Z,23.38
2018-06-23T08:12:35.376Z,22.17
2018-06-23T08:15:07.080Z,22.26
2018-06-23T08:17:39.015Z,23.18
2018-06-23T08:20:10.988Z,24.19
2018-06-23T08:22:42.487Z,24.59
2018-06-23T08:25:16.829Z,23.32
2018-06-23T08:27:48.574Z,22.21
2018-06-23T08:30:20.052Z,22.44
2018-06-23T08:32:52.223Z,22.49
2018-06-23T08:35:24.355Z,21.43
2018-06-23T08:37:55.912Z,21.29
2018-06-23T08:40:27.376Z,19.97
2018-06-23T08:42:59.297Z,20.22
2018-06-23T08:45:32.135Z,21.84
2018-06-23T08:48:04.522Z,23.94
2018-06-23T08:50:36.761Z,21.15
2018-06-23T08:53:08.580Z,22.42
2018-06-23T08:55:40.423Z,22.88
2018-06-23T08:58:10.921Z,22.50
2018-06-23T09:00:42.467Z,20.96
2018-06-23T09:03:13.969Z,20.06
2018-06-23T09:05:45.274Z,20.83
2018-06-23T09:08:17.825Z,23.56
2018-06-23T09:10:49.478Z,22.82
2018-06-23T09:13:20.736Z,22.35
2018-06-23T09:15:52.945Z,24.21
2018-06-23T09:18:24.005Z,22.76
2018-06-23T09:20:57.113Z,20.85
2018-06-23T09:23:30.563Z,19.44
2018-06-23T09:26:03.291Z,18.15
2018-06-23T09:28:35.046Z,18.94
2018-06-23T09:31:07.521Z,20.10
2018-06-23T09:33:39.981Z,21.47
2018-06-23T09:36:11.287Z,20.81
2018-06-23T09:38:43.501Z,21.63
2018-06-23T09:41:15.879Z,20.42
2018-06-23T09:43:47.587Z,20.49
2018-06-23T09:46:18.713Z,21.12
2018-06-23T09:48:51.788Z,19.75
2018-06-23T09:51:23.779Z,20.10
2018-06-23T09:53:56.877Z,18.81
2018-06-23T09:56:29.275Z,18.79
2018-06-23T09:59:02.092Z,18.86
2018-06-23T10:01:34.791Z,18.92
2018-06-23T10:04:06.853Z,21.69
2018-06-23T10:06:38.201Z,22.79
2018-06-23T10:09:11.780Z,22.09
2018-06-23T10:11:43.940Z,22.81
2018-06-23T10:14:17.810Z,21.81
2018-06-23T10:16:50.041Z,22.09
2018-06-23T10:19:21.618Z,22.50
2018-06-23T10:21:52.889Z,21.23
2018-06-23T10:24:24.711Z,20.19
2018-06-23T10:26:57.428Z,19.38
2018-06-23T10:29:28.567Z,18.81
2018-06-23T10:31:59.930Z,20.65
2018-06-23T10:34:32.225Z,20.21
2018-06-23T10:37:03.486Z,19.66
2018-06-23T10:39:34.641Z,18.86
2018-06-23T10:42:06.787Z,20.15
2018-06-23T10:44:38.717Z,21.72
2018-06-23T10:47:10.932Z,20.05
2018-06-23T10:49:42.656Z,20.02
2018-06-23T10:52:13.977Z,19.18
2018-06-23T10:54:46.110Z,18.19
2018-06-23T10:57:20.604Z,18.90
2018-06-23T10:59:52.204Z,20.10
2018-06-23T11:02:23.908Z,18.08
2018-06-23T11:04:55.354Z,17.83
2018-06-23T11:07:27.525Z,18.30
2018-06-23T11:09:59.240Z,16.98
2018-06-23T11:12:34.193Z,17.40
2018-06-23T11:15:07.632Z,17.81
2018-06-23T11:17:39.485Z,18.41
2018-06-23T11:20:10.873Z,18.55
2018-06-23T11:22:42.837Z,18.81
2018-06-23T11:25:14.431Z,18.36
2018-06-23T11:27:46.642Z,17.47
2018-06-23T11:30:18.514Z,17.58
2018-06-23T11:32:49.890Z,18.14
2018-06-23T11:35:21.592Z,17.20
2018-06-23T11:37:55.298Z,17.34
2018-06-23T11:40:27.645Z,17.34
2018-06-23T11:42:59.254Z,16.63
2018-06-23T11:45:31.929Z,17.21
2018-06-23T11:48:03.630Z,17.55
2018-06-23T11:50:36.564Z,17.28
2018-06-23T11:53:08.636Z,16.47
2018-06-23T11:55:41.230Z,17.42
2018-06-23T11:58:13.564Z,18.04
2018-06-23T12:00:45.278Z,18.37
2018-06-23T12:03:16.567Z,18.77
2018-06-23T12:05:47.639Z,20.17
2018-06-23T12:08:18.824Z,19.19
2018-06-23T12:10:50.112Z,19.10
2018-06-23T12:13:22.692Z,19.55
2018-06-23T12:15:54.165Z,19.80
2018-06-23T12:18:25.477Z,19.74
2018-06-23T12:20:56.806Z,20.34
2018-06-23T12:23:28.460Z,20.54
2018-06-23T12:26:08.156Z,18.89
2018-06-23T12:28:46.479Z,18.53
2018-06-23T12:31:24.478Z,19.45
2018-06-23T12:34:00.393Z,18.39
2018-06-23T12:36:42.702Z,19.53
2018-06-23T12:39:14.632Z,20.23
2018-06-23T12:41:49.926Z,19.91
2018-06-23T12:44:22.348Z,19.54
2018-06-23T12:46:53.869Z,20.08
2018-06-23T12:49:27.192Z,20.48
2018-06-23T12:51:59.649Z,20.48
2018-06-23T12:54:30.891Z,20.80
2018-06-23T12:57:02.247Z,22.05
2018-06-23T12:59:33.471Z,21.75
2018-06-23T13:02:04.609Z,20.09
2018-06-23T13:04:35.859Z,20.88
2018-06-23T13:07:09.640Z,21.24
2018-06-23T13:09:42.082Z,21.84
2018-06-23T13:12:14.173Z,23.00
2018-06-23T13:14:45.757Z,22.62
2018-06-23T13:17:18.503Z,21.18
2018-06-23T13:19:51.543Z,22.11
2018-06-23T13:22:24.601Z,23.06
2018-06-23T13:24:56.221Z,23.70
2018-06-23T13:27:27.760Z,23.16
2018-06-23T13:29:59.465Z,21.40
2018-06-23T13:32:34.133Z,21.20
2018-06-23T13:35:10.164Z,21.10
2018-06-23T13:37:43.176Z,22.59
2018-06-23T13:40:16.444Z,21.71
2018-06-23T13:42:50.993Z,20.48
2018-06-23T13:45:25.997Z,21.08
2018-06-23T13:47:57.471Z,22.72
2018-06-23T13:50:30.494Z,22.12
2018-06-23T13:53:01.997Z,22.12
2018-06-23T13:55:33.899Z,21.71
2018-06-23T13:58:05.392Z,22.47
2018-06-23T14:00:39.020Z,21.02
2018-06-23T14:03:10.569Z,21.98
2018-06-23T14:05:42.136Z,22.42
2018-06-23T14:08:14.262Z,22.89
2018-06-23T14:10:47.021Z,21.92
2018-06-23T14:13:20.121Z,21.55
2018-06-23T14:15:53.709Z,21.28
2018-06-23T14:18:26.088Z,20.95
2018-06-23T14:20:58.008Z,20.84
2018-06-23T14:23:34.836Z,20.85
2018-06-23T14:26:06.430Z,21.59
2018-06-23T14:28:37.732Z,20.71
2018-06-23T14:31:09.659Z,20.40
2018-06-23T14:33:41.963Z,21.16
2018-06-23T14:36:13.707Z,21.04
2018-06-23T14:38:44.425Z,20.96
2018-06-23T14:41:16.906Z,21.36
2018-06-23T14:43:48.017Z,20.85
2018-06-23T14:46:20.674Z,20.80
2018-06-23T14:48:53.557Z,21.47
2018-06-23T14:51:25.923Z,21.13
2018-06-23T14:53:57.308Z,22.27
2018-06-23T14:56:29.308Z,21.09
2018-06-23T14:59:00.736Z,21.81
2018-06-23T15:01:31.948Z,21.78
2018-06-23T15:04:03.911Z,22.17
2018-06-23T15:06:35.907Z,21.90
2018-06-23T15:09:23.452Z,21.85
2018-06-23T15:12:10.809Z,21.77
2018-06-23T15:14:42.213Z,21.40
2018-06-23T15:17:14.739Z,22.02
2018-06-23T15:19:46.120Z,22.15
2018-06-23T15:22:18.026Z,21.90
2018-06-23T15:24:50.064Z,21.80
2018-06-23T15:27:22.729Z,22.68
2018-06-23T15:29:55.084Z,23.29
2018-06-23T15:32:26.717Z,23.64
2018-06-23T15:34:57.924Z,23.83
2018-06-23T15:37:30.172Z,23.20
2018-06-23T15:40:01.424Z,23.41
2018-06-23T15:42:32.665Z,23.71
2018-06-23T15:45:05.177Z,24.58
2018-06-23T15:47:36.541Z,24.75
2018-06-23T15:50:07.796Z,25.16
2018-06-23T15:52:39.086Z,25.03
2018-06-23T15:55:11.284Z,24.79
2018-06-23T15:57:43.452Z,25.54
2018-06-23T16:00:15.620Z,24.86
2018-06-23T16:02:48.086Z,25.03
2018-06-23T16:05:19.769Z,25.43
2018-06-23T16:07:51.117Z,26.46
2018-06-23T16:10:25.161Z,24.96
2018-06-23T16:12:56.719Z,25.83
2018-06-23T16:15:28.056Z,26.46
2018-06-23T16:17:58.607Z,26.27
2018-06-23T16:20:29.064Z,26.34
2018-06-23T16:23:00.056Z,26.55
2018-06-23T16:25:32.092Z,26.75
2018-06-23T16:28:03.420Z,27.10
2018-06-23T16:30:34.959Z,27.45
2018-06-23T16:33:06.178Z,27.10
2018-06-23T16:47:28.480Z,29.10
2018-06-23T16:49:59.670Z,29.10
2018-06-23T16:52:31.008Z,27.75
2018-06-23T16:55:03.490Z,27.37
2018-06-23T16:57:39.101Z,28.25
2018-06-23T17:00:10.547Z,28.11
2018-06-23T17:02:43.106Z,28.43
2018-06-23T17:05:14.528Z,28.15
2018-06-23T17:07:46.424Z,29.03
2018-06-23T17:10:18.370Z,29.74
2018-06-23T17:12:49.413Z,29.57
2018-06-23T17:15:20.684Z,29.98
2018-06-23T17:17:52.833Z,29.57
2018-06-23T17:20:24.193Z,30.02
2018-06-23T17:22:55.432Z,29.87
2018-06-23T17:25:27.696Z,29.62
2018-06-23T17:28:00.635Z,29.53
2018-06-23T17:30:34.873Z,30.24
2018-06-23T17:33:06.746Z,29.99
2018-06-23T17:35:40.740Z,30.68
2018-06-23T17:38:12.247Z,30.74
2018-06-23T17:40:44.206Z,30.63
2018-06-23T17:43:17.880Z,30.62
2018-06-23T17:45:54.253Z,30.90
2018-06-23T17:48:27.257Z,31.21
2018-06-23T17:50:59.048Z,32.11
2018-06-23T17:53:31.001Z,31.81
2018-06-23T17:56:03.255Z,31.68
2018-06-23T17:58:34.260Z,31.69
2018-06-23T18:01:06.310Z,31.70
2018-06-23T18:03:39.357Z,32.15
2018-06-23T18:06:10.882Z,32.02
2018-06-23T18:08:43.208Z,31.08
2018-06-23T18:11:15.827Z,31.73
2018-06-23T18:13:47.223Z,31.88
2018-06-23T18:16:19.008Z,32.63
2018-06-23T18:18:50.816Z,32.20
2018-06-23T18:21:21.910Z,32.83
2018-06-23T18:23:53.230Z,32.91
2018-06-23T18:26:24.781Z,32.68
2018-06-23T18:28:55.903Z,33.22
2018-06-23T18:31:27.073Z,32.93
2018-06-23T18:33:58.352Z,33.13
2018-06-23T18:36:29.466Z,34.15
2018-06-23T18:39:00.549Z,33.87
2018-06-23T18:41:31.650Z,33.79
2018-06-23T18:44:03.209Z,33.76
2018-06-23T18:46:34.426Z,32.96
2018-06-23T18:49:05.533Z,33.54
2018-06-23T18:51:36.866Z,33.62
2018-06-23T18:54:08.221Z,33.87
2018-06-23T18:56:39.712Z,33.65
2018-06-23T18:59:11.188Z,34.28
2018-06-23T19:01:47.406Z,34.21
2018-06-23T19:04:20.010Z,34.06
2018-06-23T19:06:52.608Z,34.36
2018-06-23T19:09:25.462Z,34.63
2018-06-23T19:11:58.501Z,35.21
2018-06-23T19:14:30.945Z,35.43
2018-06-23T19:17:03.970Z,35.66
2018-06-23T19:19:36.554Z,36.84
2018-06-23T19:22:09.578Z,37.36
2018-06-23T19:24:43.359Z,38.31
2018-06-23T19:27:15.576Z,39.46
2018-06-23T19:29:49.818Z,39.84
2018-06-23T19:32:22.698Z,40.61
2018-06-23T19:34:57.091Z,40.80
2018-06-23T19:37:29.913Z,41.15
2018-06-23T19:40:06.015Z,40.85
2018-06-23T19:42:37.301Z,41.25
2018-06-23T19:45:08.557Z,41.96
2018-06-23T19:47:41.833Z,42.34
2018-06-23T19:50:13.497Z,42.21
2018-06-23T19:52:45.636Z,42.33
2018-06-23T19:55:18.252Z,42.87
2018-06-23T19:57:50.055Z,43.24
2018-06-23T20:00:22.060Z,43.12
2018-06-23T20:02:54.149Z,43.48
2018-06-23T20:05:27.786Z,43.97
2018-06-23T20:07:58.590Z,44.90
2018-06-23T20:10:30.548Z,44.47
2018-06-23T20:13:02.590Z,44.70
2018-06-23T20:15:35.103Z,45.59
2018-06-23T20:18:06.920Z,46.04
2018-06-23T20:20:41.111Z,45.96
2018-06-23T20:23:14.638Z,46.49
2018-06-23T20:25:46.469Z,47.08
2018-06-23T20:28:20.548Z,47.54
2018-06-23T20:30:53.046Z,47.77
2018-06-23T20:33:25.577Z,47.52
2018-06-23T20:35:58.480Z,47.30
2018-06-23T20:38:32.144Z,46.83
2018-06-23T20:41:05.578Z,46.98
2018-06-23T20:43:39.876Z,47.67
2018-06-23T20:46:13.293Z,47.09
2018-06-23T21:34:42.468Z,49.13
2018-06-23T21:37:14.777Z,49.58
2018-06-23T21:39:49.945Z,49.58
2018-06-23T21:42:23.070Z,49.44
2018-06-23T21:44:55.900Z,48.91
2018-06-23T21:47:27.955Z,48.81
2018-06-23T21:49:59.178Z,50.92
2018-06-23T21:52:33.191Z,51.21
2018-06-23T21:55:05.220Z,50.80
2018-06-23T21:57:40.105Z,51.01
2018-06-23T22:00:25.054Z,50.74
2018-06-23T22:02:56.656Z,54.67
2018-06-23T22:05:28.152Z,53.00
2018-06-23T22:07:59.864Z,52.13
2018-06-23T22:10:31.506Z,51.73
2018-06-23T22:13:02.883Z,51.79
2018-06-23T22:15:35.152Z,51.99
2018-06-23T22:18:06.958Z,51.22
2018-06-23T22:20:38.721Z,52.07
2018-06-23T22:23:10.210Z,52.09
2018-06-23T22:25:42.548Z,51.80
2018-06-23T22:28:14.409Z,52.64
2018-06-23T22:30:46.152Z,52.80
2018-06-23T22:33:17.416Z,53.41
2018-06-23T22:35:48.974Z,53.82
2018-06-23T22:38:21.422Z,54.54
2018-06-23T22:40:52.613Z,54.13
2018-06-23T22:43:23.225Z,54.43
2018-06-23T22:45:55.141Z,54.52
2018-06-23T22:48:26.267Z,55.07
2018-06-23T22:50:58.574Z,54.88
2018-06-23T22:53:29.851Z,55.54
2018-06-23T22:56:01.154Z,55.77
2018-06-23T22:58:32.494Z,57.49
2018-06-23T23:01:03.836Z,59.07
2018-06-23T23:03:35.635Z,59.58
2018-06-23T23:06:06.844Z,59.67
2018-06-23T23:08:38.052Z,59.62
2018-06-23T23:11:09.376Z,59.60
2018-06-23T23:13:41.769Z,59.43
2018-06-23T23:16:13.456Z,59.14
2018-06-23T23:18:45.087Z,59.27
2018-06-23T23:21:16.618Z,59.38
2018-06-23T23:23:47.678Z,59.27
2018-06-23T23:26:19.416Z,59.50
2018-06-23T23:28:50.456Z,59.84
2018-06-23T23:31:21.614Z,59.53
2018-06-23T23:33:53.839Z,59.07
2018-06-23T23:36:24.977Z,59.72
2018-06-23T23:38:56.242Z,60.90
2018-06-23T23:41:27.437Z,62.32
2018-06-23T23:43:58.741Z,62.48
2018-06-23T23:46:30.709Z,62.70
2018-06-23T23:49:01.647Z,62.19
2018-06-23T23:51:32.784Z,61.29
2018-06-23T23:54:04.011Z,61.17
2018-06-23T23:56:34.609Z,61.19
2018-06-23T23:59:06.392Z,61.34
